»·PEaware :: N12PL KSEZ-KVNY

N12PL :: KSEZ-KVNY

FLIGHT INFORMATION

Flight Status: Arrived
Operator: Privately registered:
United States
More flights under this callsign
Pilot: Ethan S. (29221)
Aircraft: CANADAIR CL-600 CHALLENGER
(CL60)
More flights by this aircraft type
Origin: KSEZ Sedona
United States
Destination: KVNY Van Nuys
United States
More flights between these airports :: More routes between these airports
Route: DRK J6 EED JANNY5
File this flight plan on PilotEdge
Remarks:
Altitude:
(Current/Filed)
40,000ft
Speed:
(Current/Filed)
465kts
Departed: 12-Nov-23 06:04 PM
Arrived: 12-Nov-23 07:04 PM
Distance/Time
Traveled:
334nm/1:00
Distance/Time
To Go:
Arrived

Flight Plot

Page will automatically refresh every two minutes.

Flight plan parsing failed; only flown route is shown


Map Options




Map Legend


Flown Route
Filed Route
Departure Airport
Arrival Airport
Navaid (VOR, NDB)
Fix

Horizontal Profiles

Position Reports

Time Latitude Longitude Heading Altitude Ground
Speed
12-Nov-23 17:10 34.849075 -111.789892 135 4785ft 0kts
12-Nov-23 17:14 34.849075 -111.789892 135 4785ft 0kts
12-Nov-23 17:15 34.849075 -111.789892 135 4785ft 0kts
12-Nov-23 17:16 34.849075 -111.789892 135 4785ft 0kts
12-Nov-23 17:17 34.849075 -111.789892 135 4785ft 0kts
12-Nov-23 17:18 34.849075 -111.789892 135 4785ft 0kts
12-Nov-23 17:19 34.849075 -111.789892 135 4785ft 0kts
12-Nov-23 17:20 34.849075 -111.789892 135 4785ft 0kts
12-Nov-23 17:21 34.849075 -111.789892 135 4785ft 0kts
12-Nov-23 17:22 34.849075 -111.789892 135 4785ft 0kts
12-Nov-23 17:23 34.849075 -111.789892 135 4785ft 0kts
12-Nov-23 17:24 34.849075 -111.789892 135 4785ft 0kts
12-Nov-23 17:25 34.849075 -111.789892 135 4785ft 0kts
12-Nov-23 17:26 34.849075 -111.789892 135 4785ft 0kts
12-Nov-23 17:27 34.849075 -111.789892 135 4785ft 0kts
12-Nov-23 17:28 34.849075 -111.789892 135 4785ft 0kts
12-Nov-23 17:29 34.849075 -111.789892 135 4785ft 0kts
12-Nov-23 17:30 34.849075 -111.789892 135 4785ft 0kts
12-Nov-23 17:31 34.849075 -111.789892 135 4785ft 0kts
12-Nov-23 17:32 34.849075 -111.789892 135 4785ft 0kts
12-Nov-23 17:33 34.849075 -111.789892 135 4785ft 0kts
12-Nov-23 17:34 34.849075 -111.789892 135 4785ft 0kts
12-Nov-23 17:35 34.849075 -111.789892 135 4785ft 0kts
12-Nov-23 17:36 34.849075 -111.789892 135 4785ft 0kts
12-Nov-23 17:37 34.849075 -111.789892 135 4785ft 0kts
12-Nov-23 17:38 34.849075 -111.789892 135 4785ft 0kts
12-Nov-23 17:39 34.849075 -111.789892 135 4785ft 0kts
12-Nov-23 17:41 34.849075 -111.789892 135 4785ft 0kts
12-Nov-23 17:42 34.849075 -111.789892 135 4785ft 0kts
12-Nov-23 17:43 34.849075 -111.789892 135 4785ft 0kts
12-Nov-23 17:44 34.849075 -111.789892 135 4785ft 0kts
12-Nov-23 17:45 34.849075 -111.789892 135 4785ft 0kts
12-Nov-23 17:46 34.849075 -111.789892 135 4785ft 0kts
12-Nov-23 17:47 34.849075 -111.789892 135 4785ft 0kts
12-Nov-23 17:48 34.849075 -111.789892 135 4785ft 0kts
12-Nov-23 17:49 34.849075 -111.789892 135 4785ft 0kts
12-Nov-23 17:50 34.849075 -111.789892 135 4785ft 0kts
12-Nov-23 17:51 34.849075 -111.789892 135 4785ft 0kts
12-Nov-23 17:52 34.849075 -111.789892 135 4785ft 0kts
12-Nov-23 17:53 34.849075 -111.789892 135 4785ft 0kts
12-Nov-23 17:54 34.849075 -111.789892 135 4785ft 0kts
12-Nov-23 17:55 34.849075 -111.789892 135 4785ft 0kts
12-Nov-23 17:56 34.849075 -111.789892 135 4785ft 0kts
12-Nov-23 17:57 34.849075 -111.789892 135 4785ft 0kts
12-Nov-23 17:58 34.849075 -111.789892 135 4785ft 0kts
12-Nov-23 17:59 34.849075 -111.789892 135 4785ft 0kts
12-Nov-23 18:00 34.849064 -111.789880 135 4785ft 1kts
12-Nov-23 18:01 34.846896 -111.791752 225 4771ft 12kts
12-Nov-23 18:02 34.845571 -111.793134 182 4764ft 0kts
12-Nov-23 18:03 34.844113 -111.794063 229 4757ft 15kts
12-Nov-23 18:04 34.854660 -111.781196 46 5160ft 165kts
12-Nov-23 18:05 34.897097 -111.733309 30 9635ft 240kts
12-Nov-23 18:06 34.943189 -111.784626 255 13083ft 307kts
12-Nov-23 18:07 34.910642 -111.884609 246 16707ft 342kts
12-Nov-23 18:08 34.871626 -111.997560 246 20325ft 376kts
12-Nov-23 18:09 34.829937 -112.117523 246 23648ft 397kts
12-Nov-23 18:10 34.785111 -112.245984 246 26135ft 427kts
12-Nov-23 18:10 34.745825 -112.358010 247 28121ft 440kts
12-Nov-23 18:12 34.707401 -112.527691 271 30237ft 458kts
12-Nov-23 18:12 34.710662 -112.655220 272 32455ft 444kts
12-Nov-23 18:13 34.715915 -112.802189 272 34843ft 429kts
12-Nov-23 18:15 34.722019 -112.970142 271 36853ft 422kts
12-Nov-23 18:16 34.727055 -113.112038 271 38091ft 420kts
12-Nov-23 18:17 34.731845 -113.253332 271 39081ft 417kts
12-Nov-23 18:17 34.735734 -113.372076 271 39177ft 428kts
12-Nov-23 18:18 34.740383 -113.518458 271 39170ft 440kts
12-Nov-23 18:19 34.744934 -113.667607 270 39158ft 440kts
12-Nov-23 18:21 34.749978 -113.840297 270 39161ft 438kts
12-Nov-23 18:21 34.753433 -113.963826 270 39221ft 438kts
12-Nov-23 18:22 34.757405 -114.112110 270 39212ft 438kts
12-Nov-23 18:23 34.761190 -114.260048 270 39122ft 438kts
12-Nov-23 18:24 34.764812 -114.408315 270 39097ft 436kts
12-Nov-23 18:25 34.768230 -114.555712 270 39093ft 436kts
12-Nov-23 18:26 34.771498 -114.702977 269 39094ft 435kts
12-Nov-23 18:27 34.774562 -114.848738 269 39168ft 435kts
12-Nov-23 18:29 34.777955 -115.020512 269 39150ft 435kts
12-Nov-23 18:29 34.780247 -115.143292 269 39090ft 434kts
12-Nov-23 18:30 34.782840 -115.288975 268 38227ft 421kts
12-Nov-23 18:31 34.785146 -115.429137 268 36453ft 415kts
12-Nov-23 18:32 34.787296 -115.570281 268 34630ft 420kts
12-Nov-23 18:33 34.789319 -115.713911 268 32647ft 428kts
12-Nov-23 18:34 34.791401 -115.859821 269 30464ft 436kts
12-Nov-23 18:35 34.794182 -116.008251 268 28247ft 434kts
12-Nov-23 18:36 34.796741 -116.152571 268 26015ft 420kts
12-Nov-23 18:37 34.796698 -116.292177 265 24724ft 409kts
12-Nov-23 18:38 34.791894 -116.430787 265 24699ft 412kts
12-Nov-23 18:39 34.786531 -116.570300 262 23489ft 405kts
12-Nov-23 18:40 34.773357 -116.704572 260 22712ft 399kts
12-Nov-23 18:41 34.760198 -116.838232 260 21774ft 395kts
12-Nov-23 18:42 34.746968 -116.969894 260 20852ft 389kts
12-Nov-23 18:43 34.733746 -117.099698 260 19931ft 385kts
12-Nov-23 18:44 34.720475 -117.228604 260 19005ft 381kts
12-Nov-23 18:45 34.707231 -117.355925 260 18102ft 378kts
12-Nov-23 18:46 34.694009 -117.481789 260 17077ft 372kts
12-Nov-23 18:47 34.680706 -117.606645 260 16124ft 372kts
12-Nov-23 18:48 34.667513 -117.730915 260 15233ft 369kts
12-Nov-23 18:49 34.654305 -117.854365 260 14327ft 366kts
12-Nov-23 18:50 34.641025 -117.976392 260 12843ft 353kts
12-Nov-23 18:51 34.626708 -118.088343 252 11464ft 318kts
12-Nov-23 18:52 34.604086 -118.187426 251 10176ft 289kts
12-Nov-23 18:53 34.583168 -118.280491 252 9049ft 286kts
12-Nov-23 18:54 34.562523 -118.372681 252 8133ft 268kts
12-Nov-23 18:55 34.543177 -118.458680 252 7739ft 262kts
12-Nov-23 18:56 34.494144 -118.510075 198 6621ft 240kts
12-Nov-23 18:57 34.431975 -118.520899 156 6041ft 234kts
12-Nov-23 18:58 34.371386 -118.506073 175 4665ft 194kts
12-Nov-23 18:59 34.323576 -118.501086 176 3266ft 142kts
12-Nov-23 19:00 34.286140 -118.497574 177 2422ft 133kts
12-Nov-23 19:01 34.249172 -118.494089 176 1595ft 132kts
12-Nov-23 19:02 34.213191 -118.490701 176 808ft 126kts
12-Nov-23 19:03 34.203650 -118.490738 196 770ft 0kts
12-Nov-23 19:04 34.202915 -118.491654 181 767ft 0kts
12-Nov-23 19:05 34.202915 -118.491654 181 767ft 0kts
12-Nov-23 19:06 34.202915 -118.491654 181 767ft 0kts
12-Nov-23 19:07 34.202915 -118.491654 181 767ft 0kts
12-Nov-23 19:08 34.202915 -118.491654 181 767ft 0kts
12-Nov-23 19:09 34.202915 -118.491654 181 767ft 0kts

Navigation Log

Ident Type
Flight plan parsing failed, navigation log unavailable